Time;durP1;ratioP1;P1;durP2;ratioP2;P2;SDS_P1;SDS_P2;PMS_P1;PMS_P2;Temp;Humidity;BMP_temperature;BMP_pressure;BME280_temperature;BME280_humidity;BME280_pressure;Samples;Min_cycle;Max_cycle;Signal;HPM_P1;HPM_P2
2022/09/21 00:01:23;;;;;;;21.90;10.32;;;;;;;15.66;43.59;99603.34;5040240;28;20094;-78
2022/09/21 00:03:55;;;;;;;22.08;10.25;;;;;;;15.54;43.81;99618.81;5057707;28;20102;-80
2022/09/21 00:06:23;;;;;;;27.17;11.98;;;;;;;15.44;43.88;99618.00;5040372;28;20040;-78
2022/09/21 00:08:48;;;;;;;31.77;13.70;;;;;;;15.46;42.97;99611.47;5074684;28;20048;-78
2022/09/21 00:11:18;;;;;;;35.33;15.35;;;;;;;15.49;43.45;99613.84;5074491;28;20547;-83
2022/09/21 00:13:45;;;;;;;52.63;21.48;;;;;;;15.45;43.18;99617.00;5039896;28;20044;-82
2022/09/21 00:16:12;;;;;;;45.83;19.52;;;;;;;15.25;44.33;99611.66;5056309;28;20110;-83
2022/09/21 00:18:38;;;;;;;47.47;17.50;;;;;;;15.13;44.84;99612.84;5073216;28;20037;-83
2022/09/21 00:21:09;;;;;;;41.05;18.13;;;;;;;14.88;46.13;99594.59;5056524;28;20089;-84
2022/09/21 00:23:35;;;;;;;35.33;17.00;;;;;;;14.97;46.21;99628.72;5074627;28;20532;-84
2022/09/21 00:26:07;;;;;;;39.55;16.60;;;;;;;14.88;46.89;99613.44;5078932;28;20123;-91
2022/09/21 00:28:33;;;;;;;41.33;16.05;;;;;;;14.91;46.80;99624.78;5057128;28;20135;-85
2022/09/21 00:31:04;;;;;;;39.15;15.27;;;;;;;14.95;46.63;99628.03;5073277;28;20036;-84
2022/09/21 00:33:30;;;;;;;33.50;15.35;;;;;;;15.09;46.54;99627.59;5055627;28;20050;-84
2022/09/21 00:36:02;;;;;;;35.45;16.02;;;;;;;15.20;46.04;99629.28;5055787;28;20051;-83
2022/09/21 00:38:27;;;;;;;34.45;17.13;;;;;;;15.27;45.88;99625.84;5072529;28;20048;-83
2022/09/21 00:40:53;;;;;;;41.72;17.60;;;;;;;15.24;46.62;99636.06;5072897;28;20102;-83
2022/09/21 00:43:19;;;;;;;35.67;15.95;;;;;;;15.15;46.85;99632.38;5073758;28;20094;-83
2022/09/21 00:45:49;;;;;;;31.15;14.10;;;;;;;15.07;47.45;99630.41;5055866;28;20116;-82
2022/09/21 00:48:15;;;;;;;45.83;18.73;;;;;;;15.12;47.29;99630.00;5039003;28;20040;-79
2022/09/21 00:50:48;;;;;;;68.28;25.98;;;;;;;15.13;47.24;99633.53;5055443;28;20138;-82
2022/09/21 00:53:15;;;;;;;78.03;30.85;;;;;;;14.95;47.95;99630.72;5072514;28;20128;-79
2022/09/21 00:55:48;;;;;;;103.53;39.90;;;;;;;14.79;48.76;99615.16;5072694;28;20056;-82
2022/09/21 00:58:19;;;;;;;117.57;45.22;;;;;;;14.80;48.63;99625.78;5056609;28;20047;-80
2022/09/21 01:00:45;;;;;;;111.10;41.65;;;;;;;14.72;48.44;99617.56;5074371;28;20079;-79
2022/09/21 01:03:12;;;;;;;102.75;40.53;;;;;;;14.79;48.68;99612.47;5055724;28;20044;-80
2022/09/21 01:05:38;;;;;;;85.28;36.42;;;;;;;14.98;48.73;99616.97;5055292;28;20040;-81
2022/09/21 01:08:06;;;;;;;89.22;37.90;;;;;;;15.02;48.40;99607.63;5073354;28;20067;-81
2022/09/21 01:10:49;;;;;;;92.68;37.40;;;;;;;15.04;48.24;99595.72;5055139;28;20044;-81
2022/09/21 01:13:27;;;;;;;72.57;31.52;;;;;;;15.25;47.65;99606.28;5055128;28;20044;-81
2022/09/21 01:16:00;;;;;;;65.45;27.00;;;;;;;15.39;47.65;99606.81;5038848;28;20420;-80
2022/09/21 01:18:41;;;;;;;62.90;24.25;;;;;;;15.43;47.43;99603.69;5038707;28;20049;-81
2022/09/21 01:21:22;;;;;;;63.42;22.98;;;;;;;15.55;47.01;99612.41;5055139;28;20059;-81
2022/09/21 01:24:18;;;;;;;55.40;19.13;;;;;;;15.65;46.69;99618.66;5038398;28;20072;-80
2022/09/21 01:27:13;;;;;;;63.72;18.30;;;;;;;15.74;46.42;99611.53;5071581;28;20044;-79
2022/09/21 01:29:49;;;;;;;70.28;18.85;;;;;;;15.71;46.32;99604.56;5067685;28;20068;-79
2022/09/21 01:32:25;;;;;;;83.80;19.90;;;;;;;15.86;46.02;99614.84;5022554;28;20040;-78
2022/09/21 01:35:00;;;;;;;90.93;19.40;;;;;;;15.96;45.97;99621.06;5072410;28;20094;-78
2022/09/21 01:37:38;;;;;;;78.40;22.08;;;;;;;16.01;45.72;99613.34;5038345;28;20138;-79
2022/09/21 01:40:10;;;;;;;86.20;20.52;;;;;;;16.08;45.50;99609.06;5071554;28;20044;-79
2022/09/21 01:42:40;;;;;;;99.63;19.95;;;;;;;16.16;45.48;99611.84;5070774;28;20056;-78
2022/09/21 01:45:09;;;;;;;72.30;18.80;;;;;;;16.23;45.38;99612.09;5071259;28;20053;-80
2022/09/21 01:47:38;;;;;;;64.28;14.73;;;;;;;16.27;45.35;99603.53;5071863;28;20040;-79
2022/09/21 01:50:06;;;;;;;50.20;13.60;;;;;;;16.32;45.43;99599.53;5072060;28;20049;-79
2022/09/21 01:53:11;;;;;;;51.85;12.57;;;;;;;16.36;44.97;99612.56;5073473;28;20052;-80
2022/09/21 01:55:48;;;;;;;52.90;12.27;;;;;;;16.34;44.99;99597.53;5061860;28;20109;-79
2022/09/21 01:58:32;;;;;;;41.20;11.13;;;;;;;16.37;45.08;99603.47;5072599;28;20153;-78
2022/09/21 02:00:58;;;;;;;56.72;12.43;;;;;;;16.38;45.04;99597.06;5072269;28;20040;-78
2022/09/21 02:03:37;;;;;;;45.67;10.70;;;;;;;16.36;44.81;99604.47;5071137;28;20045;-78
2022/09/21 02:06:05;;;;;;;38.95;10.23;;;;;;;16.39;44.87;99606.00;5054607;28;20094;-78
2022/09/21 02:08:32;;;;;;;34.20;10.43;;;;;;;16.35;45.11;99600.06;5038199;28;20045;-78
2022/09/21 02:11:00;;;;;;;31.33;9.65;;;;;;;16.31;45.18;99604.06;5070755;28;20040;-79
2022/09/21 02:13:32;;;;;;;37.78;9.30;;;;;;;16.26;44.95;99591.06;5070996;28;20040;-78
2022/09/21 02:16:26;;;;;;;36.15;8.68;;;;;;;16.26;45.03;99591.06;5037989;28;20048;-79
2022/09/21 02:19:13;;;;;;;34.22;8.68;;;;;;;16.35;44.92;99604.63;5054419;28;20063;-79
2022/09/21 02:21:54;;;;;;;21.13;8.52;;;;;;;16.30;44.93;99593.44;5054373;28;20051;-79
2022/09/21 02:24:34;;;;;;;20.25;7.85;;;;;;;16.32;45.02;99604.91;5074451;28;20098;-78
2022/09/21 02:27:22;;;;;;;28.45;8.35;;;;;;;16.30;45.10;99601.53;5074534;28;20041;-81
2022/09/21 02:30:11;;;;;;;18.23;7.22;;;;;;;16.23;44.71;99596.75;5075973;28;20044;-79
2022/09/21 02:32:59;;;;;;;17.05;7.70;;;;;;;16.24;45.04;99595.75;5057012;28;20044;-77
2022/09/21 02:35:30;;;;;;;22.77;7.35;;;;;;;16.22;44.73;99599.59;5087525;28;20051;-78
2022/09/21 02:38:04;;;;;;;21.80;7.13;;;;;;;16.19;44.77;99611.53;5096706;28;20090;-80
2022/09/21 02:40:49;;;;;;;26.95;7.05;;;;;;;16.14;44.44;99603.06;5060970;28;20044;-81
2022/09/21 02:43:32;;;;;;;15.43;6.85;;;;;;;16.04;44.57;99591.50;5078544;28;20403;-81
2022/09/21 02:46:04;;;;;;;21.67;6.72;;;;;;;16.05;44.42;99598.56;5061714;28;20039;-80
2022/09/21 02:48:50;;;;;;;23.90;6.68;;;;;;;16.13;44.46;99606.75;5094989;28;20072;-79
2022/09/21 02:51:22;;;;;;;18.23;6.05;;;;;;;16.08;44.04;99608.22;5094389;28;20452;-80
2022/09/21 02:53:51;;;;;;;23.83;5.78;;;;;;;16.08;43.93;99592.88;5077015;28;20487;-79
2022/09/21 02:56:18;;;;;;;13.65;5.35;;;;;;;16.14;43.94;99597.69;5077309;28;20554;-78
2022/09/21 02:58:49;;;;;;;14.30;5.88;;;;;;;16.24;43.47;99593.03;5094352;28;20040;-79
2022/09/21 03:01:17;;;;;;;20.05;5.53;;;;;;;16.46;43.11;99601.69;5095359;28;20061;-80
2022/09/21 03:03:47;;;;;;;18.48;5.93;;;;;;;16.61;42.95;99604.69;5076844;28;20044;-79
2022/09/21 03:06:13;;;;;;;13.80;5.15;;;;;;;16.66;42.59;99584.34;5095073;28;20044;-79
2022/09/21 03:08:39;;;;;;;14.90;4.90;;;;;;;16.73;42.00;99590.81;5076946;28;20093;-78
2022/09/21 03:11:05;;;;;;;16.65;5.25;;;;;;;16.64;41.87;99591.75;5060344;28;20054;-80
2022/09/21 03:13:35;;;;;;;17.40;6.05;;;;;;;16.75;41.77;99596.09;5060916;28;20040;-79
2022/09/21 03:16:03;;;;;;;16.33;5.45;;;;;;;16.83;41.54;99593.44;5077245;28;20048;-78
2022/09/21 03:18:30;;;;;;;15.05;5.75;;;;;;;16.91;41.41;99589.97;5077135;28;20093;-80
2022/09/21 03:20:57;;;;;;;20.25;5.65;;;;;;;16.98;41.15;99593.72;5093949;28;20471;-78
2022/09/21 03:23:23;;;;;;;21.17;5.47;;;;;;;16.95;41.02;99592.19;5059427;28;20044;-81
2022/09/21 03:25:51;;;;;;;20.08;5.72;;;;;;;16.86;40.81;99584.19;5095025;28;20040;-79
2022/09/21 03:28:17;;;;;;;14.20;5.43;;;;;;;16.95;41.03;99596.75;5093645;28;20040;-80
2022/09/21 03:30:43;;;;;;;24.70;6.68;;;;;;;17.06;41.07;99599.19;5093857;28;20499;-80
2022/09/21 03:33:11;;;;;;;21.38;6.78;;;;;;;17.16;40.95;99604.50;5086989;28;20111;-77
2022/09/21 03:35:38;;;;;;;16.35;6.53;;;;;;;17.28;40.57;99596.97;5078395;28;20049;-77
2022/09/21 03:38:04;;;;;;;11.77;5.80;;;;;;;17.32;40.56;99603.75;5075610;28;20380;-79
2022/09/21 03:40:31;;;;;;;13.82;5.68;;;;;;;17.26;40.65;99594.41;5073994;28;20039;-78
2022/09/21 03:42:57;;;;;;;17.27;5.53;;;;;;;17.27;40.12;99606.09;5074335;28;20424;-88
2022/09/21 03:45:26;;;;;;;14.98;6.07;;;;;;;17.28;39.67;99608.63;5040463;28;20411;-81
2022/09/21 03:47:56;;;;;;;;;;;;;;;17.46;39.61;99609.41;5074603;28;20139;-82
2022/09/21 03:50:23;;;;;;;20.35;5.50;;;;;;;17.60;39.74;99591.75;5074660;28;19916;-84
2022/09/21 03:52:49;;;;;;;13.05;5.72;;;;;;;17.95;38.87;99604.25;5073647;28;20040;-88
2022/09/21 03:55:15;;;;;;;20.30;6.03;;;;;;;18.18;38.81;99618.03;5043238;28;20052;-86
2022/09/21 03:57:43;;;;;;;21.95;5.75;;;;;;;18.31;38.31;99622.09;5074076;28;20123;-80
2022/09/21 04:00:10;;;;;;;20.58;5.90;;;;;;;18.44;38.29;99612.50;5056101;28;20033;-81
2022/09/21 04:02:39;;;;;;;18.20;5.18;;;;;;;18.66;37.69;99616.41;5056371;28;20052;-82
2022/09/21 04:05:13;;;;;;;17.85;4.50;;;;;;;18.83;36.61;99613.75;5072942;28;20380;-81
2022/09/21 04:07:40;;;;;;;19.38;5.28;;;;;;;18.93;36.12;99615.28;5074204;28;20036;-82
2022/09/21 04:10:12;;;;;;;12.32;4.75;;;;;;;18.98;36.11;99614.75;5056189;28;20048;-80
2022/09/21 04:12:42;;;;;;;27.02;5.50;;;;;;;19.09;35.58;99617.13;5072885;28;20037;-79
2022/09/21 04:15:14;;;;;;;23.52;5.22;;;;;;;19.18;35.78;99615.22;5039517;28;20049;-82
2022/09/21 04:17:40;;;;;;;19.38;4.90;;;;;;;19.21;35.53;99609.47;5074470;28;20447;-79
2022/09/21 04:20:07;;;;;;;16.27;4.82;;;;;;;19.35;35.37;99610.66;5056017;28;20083;-79
2022/09/21 04:22:35;;;;;;;20.83;5.18;;;;;;;19.59;35.18;99626.00;5055753;28;20518;-81
2022/09/21 04:25:03;;;;;;;14.30;5.53;;;;;;;19.68;34.97;99622.28;5073709;28;20044;-81
2022/09/21 04:27:31;;;;;;;15.77;5.15;;;;;;;19.74;34.32;99620.72;5072818;28;20045;-82
2022/09/21 04:29:58;;;;;;;18.60;5.72;;;;;;;19.63;33.47;99614.69;5072886;28;20495;-81
2022/09/21 04:32:24;;;;;;;14.40;5.10;;;;;;;19.72;33.75;99620.06;5056648;28;20047;-81
2022/09/21 04:34:50;;;;;;;14.43;5.35;;;;;;;19.80;34.07;99612.75;5039800;28;20032;-83
2022/09/21 04:37:16;;;;;;;12.07;5.68;;;;;;;20.01;33.99;99616.72;5072996;28;20049;-79
2022/09/21 04:39:42;;;;;;;13.40;6.47;;;;;;;20.12;33.60;99617.19;5074398;28;20185;-81
2022/09/21 04:42:08;;;;;;;17.15;6.57;;;;;;;20.16;33.74;99617.69;5056486;28;20044;-81
2022/09/21 04:44:34;;;;;;;20.95;6.40;;;;;;;20.29;33.53;99625.22;5055596;28;20051;-84
2022/09/21 04:47:00;;;;;;;13.32;5.63;;;;;;;20.36;33.03;99620.78;5071836;28;20036;-82
2022/09/21 04:49:26;;;;;;;19.58;6.13;;;;;;;20.56;33.13;99622.03;5072998;28;20094;-83
2022/09/21 04:51:52;;;;;;;14.63;5.65;;;;;;;20.67;32.95;99628.06;5071855;28;20036;-82
2022/09/21 04:54:18;;;;;;;15.93;5.45;;;;;;;20.86;32.43;99630.28;5071571;28;20039;-87
2022/09/21 04:56:44;;;;;;;15.40;5.55;;;;;;;20.80;32.27;99599.28;5055636;28;20056;-83
2022/09/21 04:59:09;;;;;;;15.25;5.50;;;;;;;20.97;31.89;99602.69;5055274;28;20041;-84
2022/09/21 05:01:35;;;;;;;12.73;6.30;;;;;;;20.97;31.80;99613.56;5055193;28;20044;-82
2022/09/21 05:04:01;;;;;;;13.75;5.88;;;;;;;21.02;31.83;99613.00;5071622;28;20048;-83
2022/09/21 05:06:29;;;;;;;16.40;5.93;;;;;;;21.09;32.14;99627.56;5072189;28;20044;-85
2022/09/21 05:11:40;;;;;;;23.02;8.68;;;;;;;21.21;31.89;99647.84;5073367;28;20036;-80
2022/09/21 05:14:06;;;;;;;19.08;9.95;;;;;;;21.16;32.02;99633.09;5071551;28;20041;-81
2022/09/21 05:16:32;;;;;;;30.13;10.75;;;;;;;21.16;31.79;99635.81;5054976;28;20057;-80
2022/09/21 05:18:58;;;;;;;23.98;10.48;;;;;;;21.29;31.72;99630.63;5038270;28;20037;-81
2022/09/21 05:21:24;;;;;;;24.85;11.68;;;;;;;21.28;32.04;99627.03;5075998;28;20529;-81
2022/09/21 05:23:50;;;;;;;23.45;12.52;;;;;;;21.37;31.98;99624.28;5082230;28;20040;-81
2022/09/21 05:26:16;;;;;;;30.58;14.48;;;;;;;21.43;31.97;99627.09;5071843;28;20483;-83
2022/09/21 05:28:42;;;;;;;34.92;14.90;;;;;;;21.51;31.69;99624.31;5062403;28;20194;-82
2022/09/21 05:31:34;;;;;;;26.02;15.77;;;;;;;21.63;31.83;99626.56;5076414;28;20090;-78
2022/09/21 05:34:23;;;;;;;36.88;16.33;;;;;;;21.69;32.34;99639.41;5055045;28;20048;-77
2022/09/21 05:36:55;;;;;;;36.60;15.82;;;;;;;21.77;31.63;99631.97;5068338;28;20564;-74
2022/09/21 05:39:21;;;;;;;24.58;13.07;;;;;;;21.73;31.25;99629.81;5071138;28;20041;-78
2022/09/21 05:41:47;;;;;;;25.02;11.27;;;;;;;21.65;31.20;99621.75;5072496;28;20496;-78
2022/09/21 05:44:14;;;;;;;30.00;11.90;;;;;;;21.61;31.45;99609.56;5072139;28;20044;-77
2022/09/21 05:47:07;;;;;;;23.58;11.05;;;;;;;21.72;31.08;99622.69;5054698;28;20131;-78
2022/09/21 05:50:09;;;;;;;29.35;9.82;;;;;;;21.76;31.15;99618.56;5038144;28;20499;-78
2022/09/21 05:52:46;;;;;;;21.58;10.27;;;;;;;21.89;31.06;99618.75;5072271;28;20048;-76
2022/09/21 05:55:48;;;;;;;21.48;8.93;;;;;;;21.93;31.11;99622.78;5037914;28;20182;-78
2022/09/21 05:58:48;;;;;;;15.52;8.73;;;;;;;21.78;31.17;99616.53;5056147;28;20553;-77
2022/09/21 06:01:38;;;;;;;19.90;7.45;;;;;;;21.92;30.96;99618.34;5076395;28;20044;-78
2022/09/21 06:04:11;;;;;;;21.70;7.75;;;;;;;21.73;31.10;99608.06;5092121;28;20036;-77
2022/09/21 06:06:37;;;;;;;18.67;6.57;;;;;;;21.83;30.55;99608.63;5058403;28;20044;-78
2022/09/21 06:09:03;;;;;;;13.77;6.15;;;;;;;21.91;30.60;99610.41;5074618;28;20048;-79
2022/09/21 06:11:29;;;;;;;14.88;6.85;;;;;;;22.04;30.32;99605.97;5076225;28;20094;-80
2022/09/21 06:13:54;;;;;;;14.48;6.15;;;;;;;22.25;30.32;99605.19;5058292;28;20089;-78
2022/09/21 06:16:20;;;;;;;13.95;6.43;;;;;;;22.43;29.89;99607.50;5074428;28;20048;-80
2022/09/21 06:18:46;;;;;;;18.33;6.50;;;;;;;22.55;30.00;99592.31;5071415;28;20044;-78
2022/09/21 06:21:12;;;;;;;19.10;6.72;;;;;;;22.79;30.02;99607.44;5075742;28;20151;-78
2022/09/21 06:23:38;;;;;;;12.90;7.45;;;;;;;22.94;29.64;99601.09;5074973;28;20048;-78
2022/09/21 06:26:04;;;;;;;27.38;10.88;;;;;;;23.02;29.54;99599.09;5058809;28;20072;-78
2022/09/21 06:28:30;;;;;;;20.95;9.55;;;;;;;23.25;29.13;99601.56;5075065;28;20444;-78
2022/09/21 06:30:57;;;;;;;19.58;9.68;;;;;;;23.39;29.40;99598.91;5074918;28;20048;-80
2022/09/21 06:33:23;;;;;;;20.00;10.18;;;;;;;23.45;29.21;99598.97;5041669;28;20040;-78
2022/09/21 06:35:57;;;;;;;15.40;8.55;;;;;;;23.63;28.39;99606.66;5074719;28;20169;-79
2022/09/21 06:38:24;;;;;;;20.83;9.13;;;;;;;23.65;28.56;99595.53;5076478;28;20040;-79
2022/09/21 06:40:51;;;;;;;23.90;8.07;;;;;;;23.77;27.79;99591.22;5060689;28;20048;-79
2022/09/21 06:43:17;;;;;;;16.65;7.80;;;;;;;23.79;27.93;99594.59;5077247;28;20047;-78
2022/09/21 06:45:51;;;;;;;14.32;7.40;;;;;;;23.86;27.95;99595.47;5076821;28;20036;-79
2022/09/21 06:48:17;;;;;;;20.08;8.32;;;;;;;23.94;27.61;99597.19;5060364;28;20041;-79
2022/09/21 06:50:42;;;;;;;18.20;7.90;;;;;;;23.84;27.30;99602.16;5077317;28;20040;-78
2022/09/21 06:53:12;;;;;;;23.23;8.48;;;;;;;23.78;27.72;99603.81;5085569;28;20048;-80
2022/09/21 06:55:41;;;;;;;20.92;7.28;;;;;;;23.70;27.62;99590.34;5091740;28;20075;-78
2022/09/21 06:58:07;;;;;;;17.23;7.28;;;;;;;23.88;27.35;99589.78;5057499;28;20495;-77
2022/09/21 07:00:33;;;;;;;17.02;6.75;;;;;;;23.98;27.20;99588.38;5075687;28;20036;-77
2022/09/21 07:02:59;;;;;;;11.38;7.00;;;;;;;23.98;27.17;99587.53;5077919;28;20415;-76
2022/09/21 07:05:25;;;;;;;22.05;6.43;;;;;;;24.11;26.65;99597.66;5079503;28;20545;-78
2022/09/21 07:07:57;;;;;;;14.30;7.65;;;;;;;24.15;26.66;99601.69;5057478;28;20044;-78
2022/09/21 07:10:23;;;;;;;27.77;8.63;;;;;;;24.38;26.60;99591.25;5068321;28;20467;-78
2022/09/21 07:12:51;;;;;;;22.42;7.68;;;;;;;24.59;26.34;99594.88;5094316;28;20048;-78
2022/09/21 07:15:18;;;;;;;13.50;6.53;;;;;;;24.80;26.41;99589.25;5095474;28;20044;-78
2022/09/21 07:17:44;;;;;;;13.90;6.43;;;;;;;24.95;26.01;99583.56;5095254;28;20762;-78
2022/09/21 07:20:11;;;;;;;15.77;5.97;;;;;;;25.04;25.85;99581.47;5095630;28;20089;-79
2022/09/21 07:22:36;;;;;;;15.68;7.07;;;;;;;25.30;25.77;99581.47;5077383;28;20107;-79
2022/09/21 07:25:04;;;;;;;12.00;6.13;;;;;;;25.50;25.36;99580.59;5075362;28;20138;-79
2022/09/21 07:27:31;;;;;;;16.15;7.03;;;;;;;25.61;25.35;99578.06;5073004;28;20037;-85
2022/09/21 07:29:57;;;;;;;19.25;7.20;;;;;;;25.92;25.30;99574.63;5073772;28;20131;-79
2022/09/21 07:32:24;;;;;;;18.60;7.40;;;;;;;26.24;25.13;99571.09;5077034;28;20048;-77
2022/09/21 07:34:55;;;;;;;14.68;7.00;;;;;;;26.74;24.53;99577.56;5076639;28;20078;-76
2022/09/21 07:37:22;;;;;;;22.52;7.65;;;;;;;26.81;24.16;99572.84;5076424;28;20040;-77
2022/09/21 07:39:49;;;;;;;16.63;7.23;;;;;;;27.08;24.13;99572.63;5093323;28;20107;-83
2022/09/21 07:42:16;;;;;;;17.42;7.28;;;;;;;27.44;24.05;99571.06;5076511;28;20117;-79
2022/09/21 07:44:42;;;;;;;16.65;7.00;;;;;;;27.81;23.61;99561.78;5067857;28;20487;-78
2022/09/21 07:47:12;;;;;;;21.52;7.60;;;;;;;28.16;23.26;99558.38;5074887;28;20041;-81
2022/09/21 07:49:38;;;;;;;19.08;6.95;;;;;;;28.45;22.96;99553.16;5075657;28;20079;-77
2022/09/21 07:52:05;;;;;;;24.75;7.55;;;;;;;28.30;22.09;99559.88;5075732;28;20047;-81
2022/09/21 07:54:32;;;;;;;22.98;7.43;;;;;;;28.09;22.23;99560.38;5091890;28;20140;-80
2022/09/21 07:59:42;;;;;;;13.88;7.40;;;;;;;28.31;22.18;99553.31;5075268;28;20047;-82
2022/09/21 08:02:08;;;;;;;19.30;7.40;;;;;;;28.56;21.68;99544.09;5060187;28;20126;-83
2022/09/21 08:04:35;;;;;;;21.98;8.40;;;;;;;28.77;21.55;99548.19;5073838;28;20054;-83
2022/09/21 08:07:03;;;;;;;24.58;9.57;;;;;;;28.71;21.61;99541.75;5055868;28;20089;-82
2022/09/21 08:09:40;;;;;;;16.90;8.57;;;;;;;28.72;21.17;99529.66;5058218;28;20048;-83
2022/09/21 08:12:17;;;;;;;14.88;7.78;;;;;;;28.74;20.97;99516.53;5074678;28;20127;-82
2022/09/21 08:14:43;;;;;;;;;;;;;;;28.88;21.06;99549.31;5061807;28;20140;-78
2022/09/21 08:17:10;;;;;;;17.42;8.38;;;;;;;28.61;19.92;99538.72;5075079;28;19920;-79
2022/09/21 08:19:42;;;;;;;17.92;6.18;;;;;;;28.57;19.31;99534.78;5058260;28;20051;-79
2022/09/21 08:22:11;;;;;;;17.40;6.20;;;;;;;28.75;19.60;99544.88;5073955;28;20135;-79
2022/09/21 08:24:40;;;;;;;18.02;5.50;;;;;;;29.09;18.88;99540.50;5090690;28;20044;-78
2022/09/21 08:27:07;;;;;;;10.48;4.90;;;;;;;29.35;17.87;99535.59;5092218;28;20044;-81
2022/09/21 08:29:34;;;;;;;11.40;4.95;;;;;;;29.47;17.07;99528.16;5074595;28;20035;-79
2022/09/21 08:32:02;;;;;;;10.63;5.13;;;;;;;29.52;17.56;99528.25;5073707;28;20047;-80
2022/09/21 08:34:29;;;;;;;10.25;4.85;;;;;;;29.65;17.96;99533.53;5090408;28;20050;-82
2022/09/21 08:36:59;;;;;;;13.02;5.07;;;;;;;30.01;18.08;99517.72;5074375;28;20148;-86
2022/09/21 08:39:25;;;;;;;17.58;4.60;;;;;;;30.25;17.28;99524.03;5090702;28;20085;-80
2022/09/21 08:41:57;;;;;;;14.68;5.13;;;;;;;30.29;17.03;99518.84;5073682;28;20040;-82
2022/09/21 08:44:41;;;;;;;10.02;4.78;;;;;;;30.52;16.49;99521.47;5054494;28;20047;-81
2022/09/21 08:47:37;;;;;;;16.40;5.43;;;;;;;30.58;16.53;99526.00;5079409;28;20138;-80
2022/09/21 08:50:13;;;;;;;16.38;5.07;;;;;;;30.67;16.51;99523.69;5036405;28;20067;-81
2022/09/21 08:52:40;;;;;;;9.68;4.72;;;;;;;30.79;15.69;99520.88;5037034;28;20044;-80
2022/09/21 08:55:19;;;;;;;18.83;4.63;;;;;;;31.28;15.49;99523.84;5053424;28;20072;-81
2022/09/21 08:57:45;;;;;;;8.02;5.22;;;;;;;31.78;15.11;99517.34;5036690;28;20151;-79
2022/09/21 09:00:15;;;;;;;13.90;4.72;;;;;;;31.80;15.71;99516.00;5069698;28;20056;-81
2022/09/21 09:03:11;;;;;;;15.55;5.15;;;;;;;31.82;15.70;99505.53;5035729;28;20047;-80
2022/09/21 09:06:00;;;;;;;20.58;5.13;;;;;;;32.05;15.38;99518.28;5035508;28;20052;-78
2022/09/21 09:08:44;;;;;;;13.00;4.80;;;;;;;32.29;14.82;99517.97;5051583;28;20048;-78
2022/09/21 09:11:30;;;;;;;18.23;5.60;;;;;;;32.15;14.31;99504.53;5060308;28;20617;-79
2022/09/21 09:14:21;;;;;;;7.40;3.70;;;;;;;32.11;13.32;99508.91;5083728;28;20048;-78
2022/09/21 09:17:25;;;;;;;10.25;3.30;;;;;;;32.17;12.95;99510.66;5055531;28;20147;-80
2022/09/21 09:20:11;;;;;;;6.65;3.20;;;;;;;32.47;13.03;99501.03;5053350;28;20048;-80
2022/09/21 09:23:07;;;;;;;8.68;2.90;;;;;;;32.73;12.90;99492.94;5055106;28;20047;-81
2022/09/21 09:25:40;;;;;;;9.85;2.50;;;;;;;32.81;12.14;99498.00;5016034;28;20068;-83
2022/09/21 09:28:23;;;;;;;10.50;2.95;;;;;;;32.52;12.34;99490.00;5031743;28;20504;-80
2022/09/21 09:31:23;;;;;;;7.20;2.95;;;;;;;32.45;12.65;99494.06;5014363;28;20798;-78
2022/09/21 09:34:00;;;;;;;5.15;2.20;;;;;;;32.07;13.36;99487.59;5047576;28;20116;-80
2022/09/21 09:36:32;;;;;;;5.65;2.60;;;;;;;31.94;12.75;99488.00;5032164;28;20061;-80
2022/09/21 09:39:08;;;;;;;8.98;2.50;;;;;;;32.16;13.14;99484.09;5032457;28;20527;-80
2022/09/21 09:41:53;;;;;;;5.82;2.17;;;;;;;32.11;12.66;99495.09;5031026;28;20471;-79
2022/09/21 09:44:38;;;;;;;3.40;2.15;;;;;;;32.11;12.84;99489.56;5014886;28;20134;-77
2022/09/21 09:47:55;;;;;;;4.05;2.20;;;;;;;32.33;12.76;99486.75;5030867;28;20041;-75
2022/09/21 09:50:35;;;;;;;10.55;2.28;;;;;;;32.39;12.75;99484.88;5043119;28;20596;-77
2022/09/21 09:53:19;;;;;;;4.97;2.20;;;;;;;32.55;12.31;99483.09;5038597;28;20115;-78
2022/09/21 09:55:57;;;;;;;7.93;2.33;;;;;;;32.40;11.83;99476.34;5012487;28;20533;-83
2022/09/21 09:58:22;;;;;;;4.40;1.83;;;;;;;32.52;11.53;99486.41;5031706;28;20053;-78
2022/09/21 10:00:53;;;;;;;5.25;2.33;;;;;;;32.70;12.36;99479.63;4999106;28;20282;-78
2022/09/21 10:03:23;;;;;;;5.32;2.20;;;;;;;32.63;12.16;99471.56;5039237;28;20106;-78
2022/09/21 10:05:49;;;;;;;10.77;1.95;;;;;;;32.76;11.97;99473.88;5053822;28;20522;-78
2022/09/21 10:08:38;;;;;;;5.90;1.90;;;;;;;33.07;11.88;99469.41;5084964;28;20126;-78
2022/09/21 10:11:05;;;;;;;6.25;1.90;;;;;;;32.79;11.92;99478.03;5072558;28;20052;-77
2022/09/21 10:13:33;;;;;;;3.95;1.73;;;;;;;32.92;11.77;99483.13;5054506;28;20041;-79
2022/09/21 10:16:05;;;;;;;5.63;2.20;;;;;;;33.33;11.57;99473.16;5053738;28;20042;-78
2022/09/21 10:18:52;;;;;;;4.15;1.80;;;;;;;33.51;11.46;99469.13;5055998;28;20036;-78
2022/09/21 10:21:20;;;;;;;6.68;2.40;;;;;;;33.93;11.40;99476.50;5071196;28;20046;-78
2022/09/21 10:24:00;;;;;;;6.93;2.00;;;;;;;33.89;11.41;99466.19;5073237;28;20074;-77
2022/09/21 10:26:42;;;;;;;6.22;2.00;;;;;;;34.16;11.14;99474.34;5090439;28;20074;-77
2022/09/21 10:29:24;;;;;;;8.68;2.13;;;;;;;34.30;11.44;99467.13;5090462;28;20518;-77
2022/09/21 10:31:55;;;;;;;8.70;2.28;;;;;;;34.31;11.83;99477.16;5091061;28;20063;-76
2022/09/21 10:34:21;;;;;;;5.00;2.05;;;;;;;34.31;11.49;99472.44;5055174;28;20131;-77
2022/09/21 10:36:54;;;;;;;6.90;2.20;;;;;;;34.07;11.99;99471.25;5073732;28;20062;-76
2022/09/21 10:39:29;;;;;;;3.60;2.10;;;;;;;34.18;11.44;99463.78;5088494;28;20032;-77
2022/09/21 10:42:00;;;;;;;10.35;2.30;;;;;;;34.22;10.87;99451.03;5054441;28;20033;-77
2022/09/21 10:44:33;;;;;;;12.18;2.60;;;;;;;33.54;11.51;99460.25;5092390;28;20383;-76
2022/09/21 10:47:12;;;;;;;7.15;2.35;;;;;;;33.05;11.54;99459.69;5058382;28;20032;-76
2022/09/21 10:49:53;;;;;;;4.03;2.13;;;;;;;32.84;11.81;99456.78;5092012;28;20482;-77
2022/09/21 10:52:23;;;;;;;7.43;2.20;;;;;;;32.55;12.15;99450.72;5056799;28;20190;-77
2022/09/21 10:54:53;;;;;;;6.00;1.92;;;;;;;32.18;11.99;99447.88;5079753;28;20052;-77
2022/09/21 10:57:23;;;;;;;6.25;1.98;;;;;;;31.96;12.39;99452.63;5083485;28;20055;-77
2022/09/21 10:59:49;;;;;;;6.53;2.10;;;;;;;32.03;12.45;99440.25;5084925;28;20522;-76
2022/09/21 11:02:30;;;;;;;5.03;2.10;;;;;;;32.53;12.86;99454.84;5080831;28;20040;-77
2022/09/21 11:05:15;;;;;;;7.38;2.38;;;;;;;32.70;12.54;99450.03;5074513;28;20044;-75
2022/09/21 11:07:57;;;;;;;7.75;2.15;;;;;;;32.90;12.92;99452.09;5057686;28;20056;-78
2022/09/21 11:10:48;;;;;;;12.68;3.00;;;;;;;32.97;12.75;99463.81;5057300;28;20037;-78
2022/09/21 11:13:32;;;;;;;12.55;3.30;;;;;;;32.76;12.90;99461.94;5056914;28;20131;-76
2022/09/21 11:16:21;;;;;;;9.10;3.50;;;;;;;32.66;12.61;99451.66;5056762;28;20139;-78
2022/09/21 11:19:09;;;;;;;11.45;3.85;;;;;;;32.57;12.77;99456.84;5040391;28;20103;-76
2022/09/21 11:21:42;;;;;;;21.67;4.18;;;;;;;32.44;12.94;99448.97;5084348;28;20036;-76
2022/09/21 11:24:37;;;;;;;6.95;3.70;;;;;;;32.15;13.03;99445.63;5073221;28;20088;-77
2022/09/21 11:27:22;;;;;;;12.57;4.07;;;;;;;32.06;13.36;99431.44;5040373;28;20055;-77
2022/09/21 11:30:01;;;;;;;14.60;4.53;;;;;;;32.45;13.31;99442.34;5057124;28;20056;-77
2022/09/21 11:32:55;;;;;;;11.00;4.47;;;;;;;32.88;13.67;99426.63;5056738;28;20517;-78
2022/09/21 11:35:29;;;;;;;13.95;4.82;;;;;;;33.16;13.45;99433.72;5073131;28;20127;-78
2022/09/21 11:38:10;;;;;;;15.80;5.85;;;;;;;33.93;12.65;99426.56;5039757;28;20053;-76
2022/09/21 11:40:36;;;;;;;14.35;5.72;;;;;;;34.62;12.52;99438.31;5073060;28;20113;-79
2022/09/21 11:43:29;;;;;;;18.90;6.72;;;;;;;34.76;12.03;99436.66;5056186;28;20440;-78
2022/09/21 11:46:00;;;;;;;13.32;5.70;;;;;;;34.73;12.24;99428.88;5063337;28;20131;-77
2022/09/21 11:48:50;;;;;;;17.80;5.95;;;;;;;34.96;12.16;99435.78;5072827;28;20049;-78
2022/09/21 11:51:58;;;;;;;14.27;5.95;;;;;;;35.64;11.69;99432.53;5072940;28;20542;-77
2022/09/21 11:55:01;;;;;;;15.05;5.80;;;;;;;36.10;11.27;99432.28;5073297;28;20395;-77
2022/09/21 11:58:06;;;;;;;14.35;5.60;;;;;;;36.13;11.51;99429.75;5056362;28;20048;-80